Esler Rgnl Information

FAA: ESF - ICAO: KESF

Esler Rgnl (Airport) Location

State Louisiana
County Rapides
City Alexandria
Esler Rgnl (Airport) is 10 miles northeast of Alexandria, LA.
Latitude 31-23-41.6490N
Longitude 092-17-44.7790W
Elevation 111ft

Esler Rgnl METARs

METAR KESF 191138Z AUTO 00000KT 2 1/2SM BR CLR 21/21 A2990 RMK AO2 T02110206
Altimeter 29.90"
Temperature 21.1°C (70.0°F)
Wind 0° at 0KT
Clouds Skies are clear.
Visibility 2.5mi
Time observed: 2022-05-19T11:38:00Z

Esler Rgnl (Airport) Details

Status Operational
Activation January 1941
Ownership Public
Usage Public
Chart HOUSTON
ATC on-site No
Beacon schedule sunset-sunrise
Beacon color clear green

Esler Rgnl (Airport) Contacts

Owner RAPIDES PARISH POLICE JURY
Owner address PO BOX 1150, ALEXANDRIA, LA 71309
Owner phone 318-767-2536
Manager N/A
Manager address N/A, N/A
Manager phone N/A

Esler Rgnl Radio Frequencies

Esler Rgnl (Airport) Radio Frequencies

UNICOM 122.8
Common traffic advisory frequency (CTAF) 122.8